Time;durP1;ratioP1;P1;durP2;ratioP2;P2;SDS_P1;SDS_P2;PMS_P1;PMS_P2;Temp;Humidity;BMP_temperature;BMP_pressure;BME280_temperature;BME280_humidity;BME280_pressure;Samples;Min_cycle;Max_cycle;Signal;HPM_P1;HPM_P2
2024/01/05 00:01:30;;;;;;;1.10;1.10;;;17.20;71.90;;;;;;5049952;28;44337;-73
2024/01/05 00:04:00;;;;;;;1.20;1.20;;;17.20;72.00;;;;;;5048899;28;43942;-74
2024/01/05 00:06:28;;;;;;;1.07;1.07;;;17.20;72.20;;;;;;5047059;28;43378;-74
2024/01/05 00:08:56;;;;;;;1.10;1.10;;;17.10;72.20;;;;;;5042853;28;45681;-75
2024/01/05 00:11:26;;;;;;;1.10;1.10;;;17.10;72.50;;;;;;5045300;28;44691;-74
2024/01/05 00:13:54;;;;;;;1.40;1.30;;;17.10;72.40;;;;;;5046101;28;43528;-73
2024/01/05 00:16:23;;;;;;;1.20;1.20;;;17.10;72.40;;;;;;5048595;28;44084;-73
2024/01/05 00:18:51;;;;;;;1.03;1.03;;;17.10;72.40;;;;;;5048342;28;44066;-73
2024/01/05 00:21:20;;;;;;;1.00;1.00;;;17.10;72.50;;;;;;5048041;28;43402;-75
2024/01/05 00:23:48;;;;;;;1.10;1.10;;;17.00;72.50;;;;;;5046781;28;44023;-74
2024/01/05 00:26:17;;;;;;;1.00;1.00;;;17.00;72.50;;;;;;5046953;28;43436;-72
2024/01/05 00:28:47;;;;;;;1.00;1.00;;;17.00;72.70;;;;;;5047752;28;43616;-74
2024/01/05 00:31:17;;;;;;;1.00;1.00;;;17.10;72.50;;;;;;5046506;28;44287;-73
2024/01/05 00:33:45;;;;;;;1.17;1.10;;;17.20;72.20;;;;;;5046606;28;43345;-74
2024/01/05 00:36:13;;;;;;;1.10;1.10;;;17.20;71.80;;;;;;5046478;28;43511;-74
2024/01/05 00:38:47;;;;;;;1.00;1.00;;;17.20;71.90;;;;;;5045888;28;45328;-73
2024/01/05 00:41:15;;;;;;;1.40;1.40;;;17.20;72.00;;;;;;5047856;28;43412;-74
2024/01/05 00:43:43;;;;;;;1.00;1.00;;;17.20;72.20;;;;;;5048330;28;43378;-74
2024/01/05 00:46:13;;;;;;;1.00;1.00;;;17.20;72.80;;;;;;5048246;28;43475;-73
2024/01/05 00:48:42;;;;;;;1.00;1.00;;;17.20;72.20;;;;;;5045944;28;45641;-72
2024/01/05 00:51:11;;;;;;;0.93;0.93;;;17.10;72.10;;;;;;5047913;28;43432;-73
2024/01/05 00:53:41;;;;;;;0.90;0.90;;;17.10;72.20;;;;;;5047206;28;44092;-73
2024/01/05 00:56:10;;;;;;;1.00;1.00;;;17.10;72.40;;;;;;5047738;28;43439;-75
2024/01/05 00:58:40;;;;;;;0.83;0.83;;;17.10;72.60;;;;;;5047827;28;43887;-72
2024/01/05 01:01:14;;;;;;;1.03;1.03;;;17.10;72.50;;;;;;5047506;28;43399;-73
2024/01/05 01:03:42;;;;;;;0.90;0.90;;;17.00;73.10;;;;;;5046253;28;43388;-74
2024/01/05 01:06:13;;;;;;;1.03;1.03;;;17.10;72.50;;;;;;5047290;28;44046;-71
2024/01/05 01:08:41;;;;;;;0.90;0.90;;;17.00;72.50;;;;;;5047318;28;45774;-71
2024/01/05 01:11:14;;;;;;;1.00;1.00;;;17.00;72.60;;;;;;5046206;28;44598;-72
2024/01/05 01:13:42;;;;;;;1.00;1.00;;;17.00;72.70;;;;;;5047697;28;43890;-72
2024/01/05 01:16:10;;;;;;;0.90;0.90;;;17.00;72.60;;;;;;5046165;28;43799;-71
2024/01/05 01:18:39;;;;;;;1.00;1.00;;;17.00;72.60;;;;;;5046944;28;43945;-72
2024/01/05 01:21:08;;;;;;;1.07;1.07;;;17.00;72.60;;;;;;5046032;28;45004;-72
2024/01/05 01:23:36;;;;;;;0.90;0.90;;;17.00;72.60;;;;;;5047913;28;44153;-72
2024/01/05 01:26:04;;;;;;;1.00;1.00;;;17.00;72.70;;;;;;5046124;28;43393;-74
2024/01/05 01:28:32;;;;;;;1.07;1.07;;;17.00;72.70;;;;;;5042248;28;45665;-73
2024/01/05 01:31:00;;;;;;;1.00;1.00;;;17.00;72.90;;;;;;5045511;28;44713;-73
2024/01/05 01:33:29;;;;;;;1.10;1.10;;;17.10;72.70;;;;;;5045715;28;43479;-73
2024/01/05 01:35:58;;;;;;;0.97;0.97;;;17.20;72.40;;;;;;5046697;28;43773;-72
2024/01/05 01:38:26;;;;;;;1.00;1.00;;;17.20;71.90;;;;;;5047505;28;43612;-73
2024/01/05 01:40:56;;;;;;;1.00;1.00;;;17.30;72.40;;;;;;5046690;28;43413;-73
2024/01/05 01:43:26;;;;;;;0.90;0.90;;;17.30;71.80;;;;;;5045278;28;43419;-72
2024/01/05 01:45:55;;;;;;;0.90;0.90;;;17.20;71.90;;;;;;5045816;28;43677;-72
2024/01/05 01:48:23;;;;;;;0.90;0.90;;;17.20;71.80;;;;;;5047194;28;44029;-71
2024/01/05 01:50:55;;;;;;;0.90;0.90;;;17.20;71.90;;;;;;5045027;28;43477;-72
2024/01/05 01:53:26;;;;;;;1.10;1.10;;;17.20;71.90;;;;;;5047324;28;44964;-72
2024/01/05 01:55:54;;;;;;;0.90;0.90;;;17.20;72.10;;;;;;5047204;28;43443;-72
2024/01/05 01:58:22;;;;;;;0.90;0.90;;;17.10;72.20;;;;;;5046609;28;44104;-73
2024/01/05 02:00:50;;;;;;;1.10;1.10;;;17.10;72.40;;;;;;5046816;28;43954;-72
2024/01/05 02:03:18;;;;;;;0.90;0.90;;;17.10;72.40;;;;;;5047024;28;43437;-74
2024/01/05 02:05:47;;;;;;;0.97;0.97;;;17.10;72.40;;;;;;5034210;28;43472;-74
2024/01/05 02:08:15;;;;;;;0.90;0.90;;;17.10;72.40;;;;;;5041281;28;46021;-74
2024/01/05 02:10:45;;;;;;;0.90;0.90;;;17.00;72.40;;;;;;5047753;28;44250;-73
2024/01/05 02:13:13;;;;;;;0.70;0.70;;;17.00;72.40;;;;;;5044027;28;43413;-73
2024/01/05 02:15:43;;;;;;;0.90;0.90;;;17.00;72.50;;;;;;5047048;28;43839;-76
2024/01/05 02:18:12;;;;;;;1.10;1.00;;;17.00;72.70;;;;;;5046460;28;43687;-73
2024/01/05 02:20:44;;;;;;;0.80;0.80;;;17.10;72.70;;;;;;5044922;28;45044;-73
2024/01/05 02:23:19;;;;;;;0.80;0.80;;;17.20;72.30;;;;;;5046683;28;43416;-74
2024/01/05 02:25:47;;;;;;;0.77;0.77;;;17.20;72.00;;;;;;5046540;28;43516;-72
2024/01/05 02:28:15;;;;;;;1.00;1.00;;;17.20;72.10;;;;;;5045001;28;45697;-73
2024/01/05 02:30:43;;;;;;;0.90;0.90;;;17.10;72.10;;;;;;5046404;28;43461;-73
2024/01/05 02:33:11;;;;;;;0.77;0.77;;;17.10;72.20;;;;;;5045123;28;43451;-76
2024/01/05 02:35:39;;;;;;;0.97;0.97;;;17.10;72.10;;;;;;5046954;28;43423;-73
2024/01/05 02:38:07;;;;;;;0.87;0.87;;;17.10;72.20;;;;;;5043977;28;45749;-70
2024/01/05 02:40:37;;;;;;;0.80;0.80;;;17.10;72.20;;;;;;5046329;28;43785;-72
2024/01/05 02:43:05;;;;;;;0.87;0.87;;;17.10;72.40;;;;;;5046679;28;43335;-72
2024/01/05 02:45:35;;;;;;;0.80;0.80;;;17.00;72.40;;;;;;5045252;28;43471;-71
2024/01/05 02:48:05;;;;;;;1.10;1.10;;;17.00;72.50;;;;;;5045880;28;45653;-72
2024/01/05 02:50:33;;;;;;;0.90;0.90;;;17.00;72.50;;;;;;5053429;28;44389;-72
2024/01/05 02:53:02;;;;;;;0.90;0.90;;;17.00;72.50;;;;;;5048176;28;43492;-72
2024/01/05 02:55:30;;;;;;;0.80;0.80;;;17.00;72.50;;;;;;5050154;28;43479;-71
2024/01/05 02:58:02;;;;;;;0.80;0.80;;;17.00;72.50;;;;;;5049591;28;43858;-71
2024/01/05 03:00:30;;;;;;;0.80;0.80;;;17.00;72.60;;;;;;5047816;28;45048;-73
2024/01/05 03:02:58;;;;;;;0.87;0.87;;;16.90;72.70;;;;;;5049620;28;43498;-72
2024/01/05 03:05:26;;;;;;;0.80;0.80;;;17.00;72.70;;;;;;5048134;28;43579;-71
2024/01/05 03:07:54;;;;;;;0.70;0.70;;;17.10;72.50;;;;;;5049720;28;43875;-73
2024/01/05 03:10:23;;;;;;;0.97;0.97;;;17.20;72.90;;;;;;5049424;28;43395;-72
2024/01/05 03:12:52;;;;;;;0.77;0.77;;;17.20;72.10;;;;;;5047576;28;43410;-71
2024/01/05 03:15:21;;;;;;;0.80;0.80;;;17.20;72.10;;;;;;5048179;28;43347;-71
2024/01/05 03:17:52;;;;;;;0.70;0.70;;;17.10;72.10;;;;;;5049261;28;43757;-72
2024/01/05 03:20:21;;;;;;;0.93;0.93;;;17.10;72.40;;;;;;5047732;28;44731;-71
2024/01/05 03:22:49;;;;;;;0.80;0.80;;;17.10;72.20;;;;;;5047742;28;43396;-71
2024/01/05 03:25:17;;;;;;;0.90;0.90;;;17.10;72.30;;;;;;5049299;28;44016;-71
2024/01/05 03:27:45;;;;;;;0.93;0.93;;;17.10;72.40;;;;;;5047515;28;45676;-72
2024/01/05 03:30:14;;;;;;;0.80;0.80;;;17.00;72.30;;;;;;5049147;28;43498;-73
2024/01/05 03:32:44;;;;;;;0.77;0.77;;;17.00;72.50;;;;;;5047714;28;43462;-75
2024/01/05 03:35:12;;;;;;;0.80;0.80;;;17.00;72.70;;;;;;5049642;28;43422;-74
2024/01/05 03:37:40;;;;;;;0.80;0.80;;;17.00;72.60;;;;;;5048161;28;43946;-73
2024/01/05 03:40:09;;;;;;;0.93;0.93;;;17.10;72.30;;;;;;5049275;28;43452;-74
2024/01/05 03:42:37;;;;;;;0.80;0.80;;;17.10;72.10;;;;;;5047624;28;43383;-76
2024/01/05 03:45:06;;;;;;;0.90;0.90;;;17.10;72.10;;;;;;5048721;28;43492;-73
2024/01/05 03:47:35;;;;;;;0.90;0.90;;;17.10;72.20;;;;;;5046857;28;43910;-75
2024/01/05 03:50:05;;;;;;;0.77;0.77;;;17.10;72.30;;;;;;5048784;28;43404;-73
2024/01/05 03:52:33;;;;;;;0.73;0.73;;;17.00;72.40;;;;;;5048058;28;43470;-73
2024/01/05 03:55:01;;;;;;;0.80;0.80;;;17.00;72.30;;;;;;5047811;28;43423;-75
2024/01/05 03:57:30;;;;;;;0.80;0.80;;;17.00;72.30;;;;;;5048852;28;44049;-73
2024/01/05 03:59:58;;;;;;;0.90;0.90;;;17.00;72.40;;;;;;5048267;28;43408;-74
2024/01/05 04:02:26;;;;;;;0.80;0.80;;;17.00;72.50;;;;;;5048648;28;43356;-73
2024/01/05 04:04:57;;;;;;;0.80;0.80;;;17.00;72.60;;;;;;5047293;28;43706;-74
2024/01/05 04:07:26;;;;;;;0.80;0.80;;;16.90;72.70;;;;;;5047143;28;44941;-75
2024/01/05 04:09:54;;;;;;;1.23;0.97;;;17.00;72.70;;;;;;5048257;28;44620;-75
2024/01/05 04:12:22;;;;;;;0.90;0.90;;;17.10;72.40;;;;;;5047175;28;43467;-73
2024/01/05 04:14:50;;;;;;;0.93;0.93;;;17.10;72.10;;;;;;5048897;28;43649;-73
2024/01/05 04:17:19;;;;;;;0.83;0.83;;;17.10;72.10;;;;;;5046182;28;45312;-74
2024/01/05 04:19:47;;;;;;;0.73;0.73;;;17.10;72.20;;;;;;5048391;28;43744;-73
2024/01/05 04:22:15;;;;;;;0.90;0.90;;;17.10;72.30;;;;;;5048035;28;43414;-73
2024/01/05 04:24:44;;;;;;;0.87;0.87;;;17.10;72.40;;;;;;5049092;28;43402;-74
2024/01/05 04:27:12;;;;;;;0.70;0.70;;;17.10;72.40;;;;;;5047901;28;45265;-74
2024/01/05 04:29:40;;;;;;;0.60;0.60;;;17.00;72.30;;;;;;5046685;28;45035;-76
2024/01/05 04:32:08;;;;;;;0.77;0.77;;;17.00;72.30;;;;;;5046842;28;43384;-72
2024/01/05 04:34:36;;;;;;;0.80;0.80;;;17.00;72.40;;;;;;5048690;28;43381;-74
2024/01/05 04:37:05;;;;;;;0.60;0.60;;;17.00;72.50;;;;;;5047466;28;43922;-73
2024/01/05 04:39:33;;;;;;;0.57;0.57;;;17.00;72.70;;;;;;5048252;28;43399;-73
2024/01/05 04:42:03;;;;;;;1.00;1.00;;;17.10;72.50;;;;;;5047572;28;43453;-74
2024/01/05 04:44:31;;;;;;;0.90;0.90;;;17.10;72.10;;;;;;5046783;28;43641;-73
2024/01/05 04:46:59;;;;;;;0.80;0.80;;;17.20;72.20;;;;;;5044031;28;45682;-74
2024/01/05 04:49:27;;;;;;;0.70;0.70;;;17.10;72.00;;;;;;5046186;28;44628;-73
2024/01/05 04:51:55;;;;;;;0.83;0.83;;;17.10;72.10;;;;;;5046388;28;43423;-73
2024/01/05 04:54:23;;;;;;;0.70;0.70;;;17.10;72.40;;;;;;5048196;28;43976;-73
2024/01/05 04:56:52;;;;;;;1.00;1.00;;;17.10;72.20;;;;;;5046174;28;44863;-73
2024/01/05 04:59:23;;;;;;;0.83;0.83;;;17.10;72.20;;;;;;5048120;28;43422;-73
2024/01/05 05:01:52;;;;;;;0.80;0.80;;;17.10;72.30;;;;;;5040199;28;43494;-73
2024/01/05 05:04:20;;;;;;;0.80;0.80;;;17.00;72.20;;;;;;5041852;28;43473;-73
2024/01/05 05:06:48;;;;;;;0.87;0.87;;;17.00;72.30;;;;;;5047568;28;44228;-72
2024/01/05 05:09:16;;;;;;;0.90;0.90;;;17.00;72.60;;;;;;5042514;28;43397;-73
2024/01/05 05:11:45;;;;;;;0.60;0.60;;;17.00;72.50;;;;;;5044828;28;43410;-75
2024/01/05 05:14:13;;;;;;;1.00;1.00;;;17.00;72.40;;;;;;5041767;28;43319;-75
2024/01/05 05:16:42;;;;;;;0.70;0.70;;;17.00;73.10;;;;;;5045482;28;45762;-74
2024/01/05 05:19:10;;;;;;;0.63;0.63;;;17.00;72.50;;;;;;5045956;28;44859;-72
2024/01/05 05:21:39;;;;;;;0.70;0.70;;;17.00;72.50;;;;;;5047326;28;43364;-73
2024/01/05 05:24:07;;;;;;;0.80;0.80;;;17.00;72.70;;;;;;5047422;28;43461;-73
2024/01/05 05:26:35;;;;;;;0.90;0.90;;;17.00;72.70;;;;;;5047477;28;43616;-73
2024/01/05 05:29:03;;;;;;;0.70;0.70;;;17.10;72.60;;;;;;5045125;28;44873;-72
2024/01/05 05:31:33;;;;;;;0.77;0.77;;;17.20;72.20;;;;;;5045994;28;43377;-73
2024/01/05 05:34:02;;;;;;;0.93;0.60;;;17.20;71.90;;;;;;5046126;28;43993;-73
2024/01/05 05:36:31;;;;;;;0.70;0.70;;;17.20;72.00;;;;;;5046604;28;44136;-72
2024/01/05 05:38:59;;;;;;;0.80;0.80;;;17.10;72.00;;;;;;5047084;28;43560;-73
2024/01/05 05:41:27;;;;;;;1.20;0.90;;;17.10;72.30;;;;;;5045304;28;43410;-73
2024/01/05 05:43:55;;;;;;;0.80;0.80;;;17.10;72.10;;;;;;5047398;28;43436;-74
2024/01/05 05:46:23;;;;;;;0.80;0.80;;;17.10;72.10;;;;;;5045477;28;45342;-74
2024/01/05 05:48:51;;;;;;;0.77;0.77;;;17.10;72.20;;;;;;5047343;28;43375;-74
2024/01/05 05:51:20;;;;;;;0.80;0.80;;;17.10;72.30;;;;;;5045880;28;43416;-73
2024/01/05 05:53:49;;;;;;;1.17;0.90;;;17.10;72.40;;;;;;5045707;28;43523;-73
2024/01/05 05:56:18;;;;;;;0.90;0.90;;;17.00;72.50;;;;;;5042953;28;43576;-73
2024/01/05 05:58:46;;;;;;;0.80;0.80;;;17.00;72.60;;;;;;5041651;28;43689;-73
2024/01/05 06:01:16;;;;;;;0.80;0.80;;;17.10;72.50;;;;;;5047169;28;43566;-74
2024/01/05 06:03:44;;;;;;;0.87;0.87;;;17.20;72.20;;;;;;5047179;28;43375;-74
2024/01/05 06:06:21;;;;;;;0.90;0.90;;;17.20;72.00;;;;;;5046690;28;43856;-73
2024/01/05 06:08:51;;;;;;;0.90;0.90;;;17.20;72.10;;;;;;5047269;28;43430;-73
2024/01/05 06:11:19;;;;;;;0.80;0.80;;;17.20;72.20;;;;;;5042760;28;43390;-74
2024/01/05 06:13:47;;;;;;;0.80;0.80;;;17.10;72.30;;;;;;5045288;28;44057;-73
2024/01/05 06:16:18;;;;;;;0.70;0.70;;;17.10;72.20;;;;;;5045116;28;45833;-76
2024/01/05 06:18:46;;;;;;;0.80;0.80;;;17.10;72.20;;;;;;5046972;28;43394;-73
2024/01/05 06:21:14;;;;;;;0.90;0.90;;;17.10;72.30;;;;;;5044447;28;43903;-75
2024/01/05 06:23:44;;;;;;;0.70;0.70;;;17.10;72.40;;;;;;5047984;28;43405;-73
2024/01/05 06:26:14;;;;;;;0.90;0.90;;;17.00;72.40;;;;;;5049779;28;43610;-73
2024/01/05 06:28:42;;;;;;;0.70;0.70;;;17.00;72.50;;;;;;5050099;28;43345;-77
2024/01/05 06:31:10;;;;;;;0.80;0.80;;;17.00;72.40;;;;;;5050325;28;43395;-76
2024/01/05 06:33:38;;;;;;;0.70;0.70;;;17.00;72.40;;;;;;5050083;28;43449;-74
2024/01/05 06:36:07;;;;;;;0.80;0.80;;;17.00;72.40;;;;;;5048880;28;45882;-74
2024/01/05 06:38:35;;;;;;;0.80;0.80;;;17.00;72.50;;;;;;5047795;28;43422;-72
2024/01/05 06:41:05;;;;;;;0.80;0.80;;;17.00;72.50;;;;;;5049202;28;43449;-72
2024/01/05 06:43:33;;;;;;;0.90;0.90;;;17.00;72.70;;;;;;5050083;28;43480;-73
2024/01/05 06:46:01;;;;;;;0.80;0.80;;;17.00;72.80;;;;;;5049483;28;43691;-74
2024/01/05 06:48:29;;;;;;;0.83;0.83;;;17.10;72.60;;;;;;5049861;28;43525;-75
2024/01/05 06:50:58;;;;;;;0.83;0.83;;;17.20;72.20;;;;;;5050022;28;43418;-73
2024/01/05 06:53:28;;;;;;;0.80;0.80;;;17.20;71.90;;;;;;5048693;28;43450;-74
2024/01/05 06:55:56;;;;;;;0.80;0.80;;;17.20;72.00;;;;;;5049815;28;43920;-75
2024/01/05 06:58:28;;;;;;;0.90;0.90;;;17.20;72.10;;;;;;5048037;28;44690;-75
2024/01/05 07:00:57;;;;;;;0.90;0.90;;;17.10;72.20;;;;;;5049522;28;43524;-73
2024/01/05 07:03:25;;;;;;;0.80;0.80;;;17.10;72.10;;;;;;5049782;28;43383;-73
2024/01/05 07:05:53;;;;;;;0.80;0.80;;;17.10;72.10;;;;;;5049188;28;43777;-73
2024/01/05 07:08:24;;;;;;;0.73;0.73;;;17.10;72.20;;;;;;5048408;28;45215;-74
2024/01/05 07:10:52;;;;;;;0.87;0.87;;;17.10;72.30;;;;;;5049594;28;43441;-73
2024/01/05 07:13:20;;;;;;;0.80;0.80;;;17.10;72.40;;;;;;5049430;28;43481;-72
2024/01/05 07:15:49;;;;;;;0.90;0.90;;;17.00;73.20;;;;;;5049449;28;43615;-73
2024/01/05 07:18:17;;;;;;;0.93;0.93;;;17.00;72.40;;;;;;5077626;28;44721;-72
2024/01/05 07:20:45;;;;;;;0.87;0.87;;;17.00;72.40;;;;;;5043443;28;43433;-72
2024/01/05 07:23:16;;;;;;;0.70;0.70;;;17.00;72.50;;;;;;5049081;28;43412;-73
2024/01/05 07:25:44;;;;;;;0.80;0.80;;;17.00;72.50;;;;;;5048784;28;43928;-72
2024/01/05 07:28:12;;;;;;;0.90;0.90;;;17.00;72.50;;;;;;5046999;28;44686;-72
2024/01/05 07:30:43;;;;;;;0.80;0.80;;;17.00;72.80;;;;;;5047347;28;43481;-74
2024/01/05 07:33:12;;;;;;;0.80;0.80;;;17.00;72.70;;;;;;5047947;28;43534;-71
2024/01/05 07:35:40;;;;;;;0.90;0.90;;;17.10;72.40;;;;;;5046364;28;45537;-73
2024/01/05 07:38:08;;;;;;;0.90;0.90;;;17.20;72.10;;;;;;5048728;28;43899;-73
2024/01/05 07:40:36;;;;;;;0.70;0.70;;;17.20;71.90;;;;;;5048872;28;43893;-71
2024/01/05 07:43:05;;;;;;;0.77;0.77;;;17.20;72.00;;;;;;5049309;28;43803;-73
2024/01/05 07:45:38;;;;;;;0.70;0.70;;;17.10;72.00;;;;;;5047247;28;45785;-73
2024/01/05 07:48:07;;;;;;;0.80;0.80;;;17.10;72.20;;;;;;5047523;28;44949;-72
2024/01/05 07:50:37;;;;;;;0.90;0.90;;;17.10;72.10;;;;;;5049095;28;43513;-72
2024/01/05 07:53:05;;;;;;;0.90;0.90;;;17.10;72.90;;;;;;5049392;28;43341;-72
2024/01/05 07:55:33;;;;;;;0.70;0.70;;;17.10;72.30;;;;;;5047197;28;45707;-72
2024/01/05 07:58:01;;;;;;;0.90;0.90;;;17.10;72.40;;;;;;5047264;28;44424;-72
2024/01/05 08:00:31;;;;;;;0.90;0.90;;;17.00;72.40;;;;;;5048413;28;43447;-73
2024/01/05 08:03:00;;;;;;;0.63;0.63;;;17.00;72.60;;;;;;5049021;28;43390;-73
2024/01/05 08:05:28;;;;;;;0.80;0.80;;;17.00;72.60;;;;;;5045792;28;45601;-73
2024/01/05 08:07:58;;;;;;;0.80;0.80;;;17.10;72.40;;;;;;5048461;28;43408;-74
2024/01/05 08:10:26;;;;;;;0.80;0.80;;;17.20;72.10;;;;;;5049130;28;43494;-72
2024/01/05 08:12:55;;;;;;;0.80;0.80;;;17.20;72.00;;;;;;5048852;28;43452;-72
2024/01/05 08:15:23;;;;;;;0.90;0.90;;;17.20;72.10;;;;;;5048231;28;43773;-74
2024/01/05 08:17:51;;;;;;;0.90;0.90;;;17.10;72.20;;;;;;5046471;28;44624;-73
2024/01/05 08:20:19;;;;;;;0.80;0.80;;;17.10;72.30;;;;;;5047053;28;43979;-73
2024/01/05 08:22:47;;;;;;;0.90;0.90;;;17.10;72.20;;;;;;5048601;28;43528;-73
2024/01/05 08:25:18;;;;;;;0.80;0.80;;;17.10;72.30;;;;;;5048225;28;43760;-74
2024/01/05 08:27:51;;;;;;;0.90;0.90;;;17.10;72.40;;;;;;5047912;28;43454;-72
2024/01/05 08:30:19;;;;;;;0.90;0.90;;;17.10;72.50;;;;;;5046871;28;43432;-70
2024/01/05 08:32:51;;;;;;;0.90;0.90;;;17.00;72.40;;;;;;5048615;28;43456;-72
2024/01/05 08:35:20;;;;;;;0.70;0.70;;;17.00;72.60;;;;;;5048201;28;43890;-70
2024/01/05 08:37:48;;;;;;;0.70;0.70;;;17.00;72.50;;;;;;5046595;28;44699;-71
2024/01/05 08:40:19;;;;;;;0.73;0.73;;;17.00;72.60;;;;;;5047881;28;43431;-71
2024/01/05 08:42:47;;;;;;;0.73;0.73;;;17.00;72.60;;;;;;5048521;28;43474;-71
2024/01/05 08:45:18;;;;;;;0.87;0.87;;;17.00;72.90;;;;;;5047918;28;43855;-71
2024/01/05 08:47:48;;;;;;;0.80;0.80;;;17.00;72.60;;;;;;5048151;28;43442;-72
2024/01/05 08:50:16;;;;;;;1.10;1.10;;;17.00;72.90;;;;;;5048207;28;43437;-71
2024/01/05 08:52:45;;;;;;;0.90;0.90;;;16.90;72.60;;;;;;5046859;28;43476;-71
2024/01/05 08:55:15;;;;;;;0.77;0.77;;;17.00;72.70;;;;;;5047475;28;43962;-70
2024/01/05 08:57:44;;;;;;;0.70;0.70;;;17.00;72.70;;;;;;5040077;28;44760;-72
2024/01/05 09:00:12;;;;;;;0.73;0.73;;;16.90;72.60;;;;;;5039998;28;43525;-74
2024/01/05 09:02:40;;;;;;;0.80;0.80;;;16.90;72.70;;;;;;5048327;28;43599;-72
2024/01/05 09:05:09;;;;;;;0.80;0.80;;;16.90;72.80;;;;;;5047756;28;43619;-72
2024/01/05 09:07:40;;;;;;;1.03;1.03;;;17.00;72.90;;;;;;5047776;28;43877;-72
2024/01/05 09:10:09;;;;;;;0.90;0.90;;;17.10;72.70;;;;;;5048823;28;43442;-71
2024/01/05 09:12:38;;;;;;;0.80;0.80;;;17.20;72.30;;;;;;5049921;28;43387;-75
2024/01/05 09:15:08;;;;;;;0.60;0.60;;;17.20;71.90;;;;;;5044317;28;44079;-71
2024/01/05 09:17:39;;;;;;;0.80;0.80;;;17.30;71.80;;;;;;5047187;28;43482;-73
2024/01/05 09:20:08;;;;;;;0.80;0.80;;;17.20;71.90;;;;;;5046882;28;43910;-74
2024/01/05 09:22:37;;;;;;;1.00;1.00;;;17.20;72.00;;;;;;5045002;28;43598;-73
2024/01/05 09:25:07;;;;;;;0.70;0.70;;;17.20;71.90;;;;;;5047187;28;43911;-74
2024/01/05 09:27:36;;;;;;;0.80;0.80;;;17.20;72.00;;;;;;5044665;28;45050;-74
2024/01/05 09:30:06;;;;;;;0.90;0.90;;;17.20;72.20;;;;;;5045893;28;43486;-74
2024/01/05 09:32:36;;;;;;;0.80;0.80;;;17.10;72.20;;;;;;5048007;28;43490;-75
2024/01/05 09:35:05;;;;;;;1.00;1.00;;;17.10;72.40;;;;;;5067555;28;45616;-73
2024/01/05 09:37:35;;;;;;;0.90;0.90;;;17.00;72.40;;;;;;5045668;28;45086;-76
2024/01/05 09:40:03;;;;;;;0.80;0.80;;;17.00;72.40;;;;;;5047330;28;43312;-74
2024/01/05 09:42:31;;;;;;;0.90;0.90;;;17.00;72.50;;;;;;5045994;28;43494;-75
2024/01/05 09:45:00;;;;;;;0.90;0.90;;;17.00;72.50;;;;;;5047773;28;45085;-75
2024/01/05 09:47:28;;;;;;;1.00;1.00;;;17.00;72.50;;;;;;5044846;28;43427;-74
2024/01/05 09:49:57;;;;;;;0.80;0.80;;;17.00;72.70;;;;;;5045724;28;43453;-73
2024/01/05 09:52:27;;;;;;;0.93;0.93;;;17.00;72.80;;;;;;5048790;28;43410;-74
2024/01/05 09:54:56;;;;;;;0.83;0.83;;;17.00;72.90;;;;;;5050939;28;45676;-74
2024/01/05 09:57:24;;;;;;;0.80;0.80;;;17.10;72.60;;;;;;5048952;28;44311;-75
2024/01/05 09:59:52;;;;;;;0.80;0.80;;;17.10;72.10;;;;;;5048588;28;43434;-75
2024/01/05 10:02:22;;;;;;;0.70;0.70;;;17.20;72.20;;;;;;5047268;28;43442;-73
2024/01/05 10:04:50;;;;;;;0.83;0.83;;;17.10;72.10;;;;;;5046426;28;46107;-74
2024/01/05 10:07:21;;;;;;;0.87;0.87;;;17.10;72.20;;;;;;5048993;28;43344;-75
2024/01/05 10:09:50;;;;;;;0.67;0.67;;;17.10;72.30;;;;;;5048307;28;43459;-75
2024/01/05 10:12:18;;;;;;;0.70;0.70;;;17.10;72.30;;;;;;5048678;28;43479;-75
2024/01/05 10:14:47;;;;;;;0.90;0.90;;;17.10;72.30;;;;;;5048343;28;44149;-75
2024/01/05 10:17:15;;;;;;;0.80;0.80;;;17.10;72.40;;;;;;5048745;28;43403;-74
2024/01/05 10:19:44;;;;;;;0.70;0.70;;;17.00;72.40;;;;;;5046603;28;43401;-75
2024/01/05 10:22:13;;;;;;;0.70;0.70;;;17.00;72.50;;;;;;5047227;28;43524;-73
2024/01/05 10:24:43;;;;;;;0.77;0.77;;;17.00;72.70;;;;;;5047563;28;43912;-73
2024/01/05 10:27:11;;;;;;;0.70;0.70;;;17.00;72.60;;;;;;5046698;28;43396;-71
2024/01/05 10:29:42;;;;;;;0.90;0.90;;;17.00;72.70;;;;;;5045648;28;43535;-72
2024/01/05 10:32:12;;;;;;;1.00;1.00;;;17.00;73.40;;;;;;5049301;28;44721;-72
2024/01/05 10:34:41;;;;;;;0.90;0.90;;;17.00;72.70;;;;;;5046862;28;43985;-71
2024/01/05 10:37:10;;;;;;;0.83;0.83;;;16.90;72.70;;;;;;5039483;28;43565;-72
2024/01/05 10:39:39;;;;;;;0.77;0.77;;;16.90;72.90;;;;;;5062410;28;43494;-74
2024/01/05 10:42:21;;;;;;;0.90;0.90;;;17.00;72.80;;;;;;5046635;28;43389;-74
2024/01/05 10:44:51;;;;;;;0.90;0.90;;;17.10;72.50;;;;;;5045677;28;45718;-71
2024/01/05 10:47:20;;;;;;;0.83;0.83;;;17.10;72.10;;;;;;5044817;28;44240;-72
2024/01/05 10:49:50;;;;;;;0.90;0.90;;;17.10;72.10;;;;;;5046032;28;43844;-73
2024/01/05 10:52:17;;;;;;;0.80;0.80;;;17.10;72.20;;;;;;5044682;28;43472;-73
2024/01/05 10:54:47;;;;;;;0.70;0.70;;;17.10;72.40;;;;;;5046335;28;43780;-72
2024/01/05 10:57:16;;;;;;;1.40;0.90;;;17.10;72.40;;;;;;5043644;28;44044;-71
2024/01/05 10:59:46;;;;;;;1.00;1.00;;;17.10;72.40;;;;;;5044369;28;43471;-71
2024/01/05 11:02:19;;;;;;;1.17;0.80;;;17.10;72.40;;;;;;5046551;28;43478;-73
2024/01/05 11:04:55;;;;;;;0.77;0.77;;;17.00;72.30;;;;;;5044295;28;45443;-73
2024/01/05 11:07:24;;;;;;;0.90;0.90;;;17.00;72.50;;;;;;5040354;28;43604;-73
2024/01/05 11:09:58;;;;;;;0.70;0.70;;;17.00;72.50;;;;;;5046916;28;43469;-73
2024/01/05 11:12:39;;;;;;;0.87;0.87;;;17.00;72.60;;;;;;5049754;28;43542;-72
2024/01/05 11:15:14;;;;;;;0.90;0.90;;;17.00;72.70;;;;;;5048865;28;43877;-72
2024/01/05 11:17:52;;;;;;;0.90;0.90;;;16.90;73.40;;;;;;5050136;28;43544;-73
2024/01/05 11:20:43;;;;;;;0.70;0.70;;;17.00;72.90;;;;;;5051915;28;43950;-71
2024/01/05 11:23:11;;;;;;;0.87;0.87;;;16.90;72.80;;;;;;5047534;28;43807;-72
2024/01/05 11:25:39;;;;;;;1.13;0.90;;;16.90;73.00;;;;;;5050859;28;43824;-73
2024/01/05 11:28:08;;;;;;;0.70;0.70;;;17.00;73.20;;;;;;5047029;28;43553;-75
2024/01/05 11:30:41;;;;;;;0.80;0.80;;;17.10;73.00;;;;;;5052008;28;43396;-72
2024/01/05 11:33:10;;;;;;;1.00;1.00;;;17.20;72.60;;;;;;5047585;28;43542;-72
2024/01/05 11:35:43;;;;;;;0.90;0.90;;;17.40;72.30;;;;;;5050942;28;43859;-72
2024/01/05 11:38:29;;;;;;;0.90;0.90;;;17.50;71.70;;;;;;5047819;28;43467;-71
2024/01/05 11:40:57;;;;;;;0.80;0.80;;;17.70;71.10;;;;;;5048316;28;43428;-74
2024/01/05 11:43:35;;;;;;;0.80;0.80;;;17.90;70.60;;;;;;5048912;28;43885;-72
2024/01/05 11:46:05;;;;;;;0.80;0.80;;;18.10;70.30;;;;;;5048737;28;43608;-73
2024/01/05 11:48:51;;;;;;;0.90;0.90;;;18.20;69.90;;;;;;5048363;28;43514;-73
2024/01/05 11:51:19;;;;;;;0.90;0.90;;;18.30;69.50;;;;;;5052650;28;43475;-75
2024/01/05 11:53:49;;;;;;;0.83;0.83;;;18.30;69.10;;;;;;5049108;28;43566;-72
2024/01/05 11:56:21;;;;;;;0.90;0.90;;;18.30;69.10;;;;;;5051837;28;46082;-72
2024/01/05 11:58:50;;;;;;;0.63;0.63;;;18.30;69.30;;;;;;5057289;28;43497;-73
2024/01/05 12:01:19;;;;;;;0.80;0.80;;;18.10;70.10;;;;;;5048559;28;43965;-74
2024/01/05 12:03:48;;;;;;;0.90;0.90;;;18.00;69.90;;;;;;5047477;28;43615;-73
2024/01/05 12:06:17;;;;;;;1.00;1.00;;;17.80;70.70;;;;;;5047600;28;43981;-72
2024/01/05 12:08:46;;;;;;;0.90;0.90;;;17.80;70.80;;;;;;5048577;28;44095;-71
2024/01/05 12:11:15;;;;;;;0.90;0.90;;;17.70;70.80;;;;;;5052619;28;43497;-72
2024/01/05 12:13:44;;;;;;;0.80;0.80;;;17.60;71.00;;;;;;5047595;28;43417;-71
2024/01/05 12:16:13;;;;;;;0.90;0.90;;;17.50;71.40;;;;;;5049051;28;44057;-71
2024/01/05 12:18:47;;;;;;;0.90;0.90;;;17.40;71.50;;;;;;5048140;28;43510;-73
2024/01/05 12:21:19;;;;;;;0.70;0.70;;;17.40;72.20;;;;;;5047194;28;43375;-73
2024/01/05 12:23:53;;;;;;;1.07;1.07;;;17.40;72.00;;;;;;5047981;28;43524;-73
2024/01/05 12:26:22;;;;;;;0.90;0.90;;;17.30;72.00;;;;;;5047120;28;45877;-73
2024/01/05 12:28:51;;;;;;;0.70;0.70;;;17.30;72.90;;;;;;5048526;28;43582;-72
2024/01/05 12:31:19;;;;;;;0.80;0.80;;;17.20;72.20;;;;;;5047290;28;43395;-72
2024/01/05 12:33:51;;;;;;;0.70;0.70;;;17.20;72.40;;;;;;5048544;28;43466;-72
2024/01/05 12:36:25;;;;;;;1.03;1.03;;;17.20;72.90;;;;;;5049409;28;44188;-72
2024/01/05 12:38:54;;;;;;;0.80;0.80;;;17.30;72.80;;;;;;5047846;28;43412;-72
2024/01/05 12:41:22;;;;;;;0.90;0.90;;;17.40;72.50;;;;;;5046773;28;43390;-70
2024/01/05 12:43:49;;;;;;;0.90;0.90;;;17.50;72.10;;;;;;5048486;28;43422;-71
2024/01/05 12:46:18;;;;;;;0.90;0.90;;;17.50;71.70;;;;;;5048060;28;43786;-73
2024/01/05 12:48:46;;;;;;;0.90;0.90;;;17.50;71.90;;;;;;5047190;28;43367;-71
2024/01/05 12:51:19;;;;;;;0.97;0.97;;;17.50;72.30;;;;;;5047422;28;43404;-71
2024/01/05 12:53:50;;;;;;;0.80;0.80;;;17.40;72.00;;;;;;5048075;28;43417;-72
2024/01/05 12:56:20;;;;;;;0.80;0.80;;;17.40;72.00;;;;;;5046961;28;43593;-73
2024/01/05 12:58:51;;;;;;;0.80;0.80;;;17.40;72.20;;;;;;5045336;28;44607;-74